createdAt,value
2018-05-17T00:00:38.723Z,0.00
2018-05-17T00:01:38.585Z,0.00
2018-05-17T00:02:38.581Z,0.00
2018-05-17T00:03:38.553Z,0.00
2018-05-17T00:04:38.536Z,0.00
2018-05-17T00:05:38.706Z,0.00
2018-05-17T00:06:38.508Z,0.00
2018-05-17T00:07:38.501Z,0.00
2018-05-17T00:08:38.553Z,0.00
2018-05-17T00:09:38.473Z,0.00
2018-05-17T00:10:38.541Z,0.00
2018-05-17T00:11:38.451Z,0.00
2018-05-17T00:12:38.418Z,0.00
2018-05-17T00:13:38.405Z,0.00
2018-05-17T00:14:38.393Z,0.00
2018-05-17T00:15:38.579Z,0.00
2018-05-17T00:16:38.496Z,0.00
2018-05-17T00:17:38.475Z,0.00
2018-05-17T00:18:38.327Z,0.00
2018-05-17T00:19:38.314Z,0.00
2018-05-17T00:20:38.295Z,0.00
2018-05-17T00:21:38.293Z,0.00
2018-05-17T00:22:38.356Z,0.00
2018-05-17T00:23:38.299Z,0.00
2018-05-17T00:24:38.559Z,0.00
2018-05-17T00:25:38.251Z,0.00
2018-05-17T00:26:38.212Z,0.00
2018-05-17T00:27:38.187Z,0.00
2018-05-17T00:28:38.257Z,0.00
2018-05-17T00:29:38.375Z,0.00
2018-05-17T00:30:38.193Z,0.00
2018-05-17T00:31:38.130Z,0.00
2018-05-17T00:32:38.125Z,0.00
2018-05-17T00:33:38.108Z,0.00
2018-05-17T00:34:38.166Z,0.00
2018-05-17T00:35:38.069Z,0.00
2018-05-17T00:36:38.054Z,0.00
2018-05-17T00:37:38.040Z,0.00
2018-05-17T00:38:38.025Z,0.00
2018-05-17T00:39:38.015Z,0.00
2018-05-17T00:40:37.996Z,0.00
2018-05-17T00:41:37.985Z,0.00
2018-05-17T00:42:37.966Z,0.00
2018-05-17T00:43:38.433Z,0.00
2018-05-17T00:44:37.937Z,0.00
2018-05-17T00:45:37.924Z,0.00
2018-05-17T00:46:37.905Z,0.00
2018-05-17T00:47:37.893Z,0.00
2018-05-17T00:48:37.881Z,0.00
2018-05-17T00:49:37.863Z,0.00
2018-05-17T00:50:37.848Z,0.00
2018-05-17T00:51:37.832Z,0.00
2018-05-17T00:52:37.816Z,0.00
2018-05-17T00:53:37.803Z,0.00
2018-05-17T00:54:37.789Z,0.00
2018-05-17T00:55:37.766Z,0.00
2018-05-17T00:56:37.750Z,0.00
2018-05-17T00:57:37.744Z,0.00
2018-05-17T00:58:37.721Z,0.00
2018-05-17T00:59:37.706Z,0.00
2018-05-17T01:00:37.690Z,0.00
2018-05-17T01:01:37.683Z,0.00
2018-05-17T01:02:37.661Z,0.00
2018-05-17T01:03:37.646Z,0.00
2018-05-17T01:04:37.629Z,0.00
2018-05-17T01:05:37.618Z,0.00
2018-05-17T01:06:37.600Z,0.00
2018-05-17T01:07:37.584Z,0.00
2018-05-17T01:08:37.568Z,0.00
2018-05-17T01:09:37.555Z,0.00
2018-05-17T01:10:37.542Z,0.00
2018-05-17T01:11:37.523Z,0.00
2018-05-17T01:12:37.515Z,0.00
2018-05-17T01:13:37.494Z,0.00
2018-05-17T01:14:37.488Z,0.00
2018-05-17T01:15:37.462Z,0.00
2018-05-17T01:16:37.452Z,0.00
2018-05-17T01:17:37.433Z,0.00
2018-05-17T01:18:37.420Z,0.00
2018-05-17T01:19:37.405Z,0.00
2018-05-17T01:20:37.385Z,0.00
2018-05-17T01:21:37.375Z,0.00
2018-05-17T01:22:37.363Z,0.00
2018-05-17T01:23:37.353Z,0.00
2018-05-17T01:24:37.324Z,0.00
2018-05-17T01:25:37.314Z,0.00
2018-05-17T01:26:37.296Z,0.00
2018-05-17T01:27:37.286Z,0.00
2018-05-17T01:28:37.267Z,0.00
2018-05-17T01:29:37.248Z,0.00
2018-05-17T01:30:37.235Z,0.00
2018-05-17T01:31:37.219Z,0.00
2018-05-17T01:32:37.206Z,0.00
2018-05-17T01:33:37.194Z,0.00
2018-05-17T01:34:37.180Z,0.00
2018-05-17T01:35:37.157Z,0.00
2018-05-17T01:36:37.141Z,0.00
2018-05-17T01:37:37.128Z,0.00
2018-05-17T01:38:37.118Z,0.00
2018-05-17T01:39:37.097Z,0.00
2018-05-17T01:40:37.081Z,0.00
2018-05-17T01:41:37.071Z,0.00
2018-05-17T01:42:37.052Z,0.00
2018-05-17T01:43:37.036Z,0.00
2018-05-17T01:44:37.023Z,0.00
2018-05-17T01:45:37.007Z,0.00
2018-05-17T01:46:37.000Z,0.00
2018-05-17T01:47:36.973Z,0.00
2018-05-17T01:48:36.958Z,0.00
2018-05-17T01:49:36.945Z,0.00
2018-05-17T01:50:36.936Z,0.00
2018-05-17T01:51:36.913Z,0.00
2018-05-17T01:52:36.896Z,0.00
2018-05-17T01:53:36.891Z,0.00
2018-05-17T01:54:36.868Z,0.00
2018-05-17T01:55:36.852Z,0.00
2018-05-17T01:56:36.842Z,0.00
2018-05-17T01:57:36.826Z,0.00
2018-05-17T01:58:36.813Z,0.00
2018-05-17T01:59:36.791Z,0.00
2018-05-17T02:00:36.782Z,0.00
2018-05-17T02:01:36.763Z,0.00
2018-05-17T02:02:36.747Z,0.00
2018-05-17T02:03:36.730Z,0.00
2018-05-17T02:04:36.721Z,0.00
2018-05-17T02:05:36.708Z,0.00
2018-05-17T02:06:36.685Z,0.00
2018-05-17T02:07:36.669Z,0.00
2018-05-17T02:08:36.654Z,0.00
2018-05-17T02:09:36.641Z,0.00
2018-05-17T02:10:36.632Z,0.00
2018-05-17T02:11:36.619Z,0.00
2018-05-17T02:12:36.606Z,0.00
2018-05-17T02:13:36.581Z,0.00
2018-05-17T02:14:36.567Z,0.00
2018-05-17T02:15:36.552Z,0.00
2018-05-17T02:16:36.535Z,0.00
2018-05-17T02:17:36.522Z,0.00
2018-05-17T02:18:36.508Z,0.00
2018-05-17T02:19:36.494Z,0.00
2018-05-17T02:20:36.478Z,0.00
2018-05-17T02:21:36.469Z,0.00
2018-05-17T02:22:36.452Z,0.00
2018-05-17T02:23:36.434Z,0.00
2018-05-17T02:24:36.414Z,0.00
2018-05-17T02:25:36.401Z,0.00
2018-05-17T02:26:36.389Z,0.00
2018-05-17T02:27:36.377Z,0.00
2018-05-17T02:28:36.357Z,0.00
2018-05-17T02:29:36.341Z,0.00
2018-05-17T02:30:36.337Z,0.00
2018-05-17T02:31:36.310Z,0.00
2018-05-17T02:32:36.294Z,0.00
2018-05-17T02:33:36.286Z,0.00
2018-05-17T02:34:36.271Z,0.00
2018-05-17T02:35:36.255Z,0.00
2018-05-17T02:36:36.233Z,0.00
2018-05-17T02:37:36.220Z,0.00
2018-05-17T02:38:36.205Z,0.00
2018-05-17T02:39:36.199Z,0.00
2018-05-17T02:40:36.180Z,0.00
2018-05-17T02:41:36.164Z,0.00
2018-05-17T02:42:36.156Z,0.00
2018-05-17T02:43:36.148Z,0.00
2018-05-17T02:44:36.122Z,0.00
2018-05-17T02:45:36.112Z,0.00
2018-05-17T02:46:36.091Z,0.00
2018-05-17T02:47:36.077Z,0.00
2018-05-17T02:48:36.065Z,0.00
2018-05-17T02:49:36.045Z,0.00
2018-05-17T02:50:36.029Z,0.00
2018-05-17T02:51:36.013Z,0.00
2018-05-17T02:52:36.000Z,0.00
2018-05-17T02:53:36.007Z,0.00
2018-05-17T02:54:35.967Z,0.00
2018-05-17T02:55:35.959Z,0.00
2018-05-17T02:56:35.934Z,0.00
2018-05-17T02:57:35.922Z,0.00
2018-05-17T02:58:35.912Z,0.00
2018-05-17T02:59:35.896Z,0.00
2018-05-17T03:00:35.894Z,0.00
2018-05-17T03:01:35.867Z,0.00
2018-05-17T03:02:35.855Z,0.00
2018-05-17T03:03:35.839Z,0.00
2018-05-17T03:04:35.833Z,0.00
2018-05-17T03:05:35.803Z,0.00
2018-05-17T03:06:35.795Z,0.00
2018-05-17T03:07:35.773Z,0.00
2018-05-17T03:08:35.757Z,0.00
2018-05-17T03:09:35.747Z,0.00
2018-05-17T03:10:35.729Z,0.00
2018-05-17T03:11:35.719Z,4.00
2018-05-17T03:12:35.706Z,4.00
2018-05-17T03:13:35.692Z,4.00
2018-05-17T03:14:35.676Z,0.00
2018-05-17T03:15:35.654Z,4.00
2018-05-17T03:16:35.644Z,4.00
2018-05-17T03:17:35.628Z,8.00
2018-05-17T03:18:35.611Z,4.00
2018-05-17T03:19:35.606Z,8.00
2018-05-17T03:20:35.583Z,4.00
2018-05-17T03:21:35.567Z,8.00
2018-05-17T03:22:35.551Z,8.00
2018-05-17T03:23:35.542Z,8.00
2018-05-17T03:24:35.529Z,8.00
2018-05-17T03:25:35.503Z,12.00
2018-05-17T03:26:35.490Z,12.00
2018-05-17T03:27:35.478Z,16.00
2018-05-17T03:28:35.462Z,20.00
2018-05-17T03:29:35.443Z,24.00
2018-05-17T03:30:35.440Z,28.00
2018-05-17T03:31:35.420Z,32.00
2018-05-17T03:32:35.408Z,36.00
2018-05-17T03:33:35.387Z,40.00
2018-05-17T03:34:35.371Z,48.00
2018-05-17T03:35:35.364Z,64.00
2018-05-17T03:36:35.342Z,72.00
2018-05-17T03:37:35.332Z,88.00
2018-05-17T03:38:35.316Z,96.00
2018-05-17T03:39:35.307Z,104.00
2018-05-17T03:40:35.285Z,112.00
2018-05-17T03:41:35.265Z,120.00
2018-05-17T03:42:35.268Z,124.00
2018-05-17T03:43:35.240Z,152.00
2018-05-17T03:44:35.230Z,188.00
2018-05-17T03:45:35.214Z,228.00
2018-05-17T03:46:35.200Z,260.00
2018-05-17T03:47:35.178Z,284.00
2018-05-17T03:48:35.162Z,292.00
2018-05-17T03:49:35.147Z,304.00
2018-05-17T03:50:35.143Z,324.00
2018-05-17T03:51:35.127Z,352.00
2018-05-17T03:52:35.105Z,396.00
2018-05-17T03:53:35.086Z,452.00
2018-05-17T03:54:35.069Z,500.00
2018-05-17T03:55:35.057Z,544.00
2018-05-17T03:56:35.042Z,552.00
2018-05-17T03:57:35.034Z,548.00
2018-05-17T03:58:35.016Z,580.00
2018-05-17T03:59:35.003Z,628.00
2018-05-17T04:00:34.989Z,636.00
2018-05-17T04:01:34.971Z,640.00
2018-05-17T04:02:34.954Z,676.00
2018-05-17T04:03:34.948Z,648.00
2018-05-17T04:04:34.927Z,692.00
2018-05-17T04:05:34.906Z,712.00
2018-05-17T04:06:34.900Z,716.00
2018-05-17T04:07:34.880Z,888.00
2018-05-17T04:08:34.920Z,948.00
2018-05-17T04:09:34.861Z,852.00
2018-05-17T04:10:34.832Z,780.00
2018-05-17T04:11:34.820Z,836.00
2018-05-17T04:12:34.810Z,884.00
2018-05-17T04:13:34.788Z,788.00
2018-05-17T04:14:34.777Z,892.00
2018-05-17T04:15:34.768Z,896.00
2018-05-17T04:16:34.742Z,1000.00
2018-05-17T04:17:34.732Z,1104.00
2018-05-17T04:18:34.714Z,1236.00
2018-05-17T04:19:34.713Z,1276.00
2018-05-17T04:20:34.685Z,1284.00
2018-05-17T04:21:34.683Z,1160.00
2018-05-17T04:22:34.665Z,1284.00
2018-05-17T04:23:34.637Z,1136.00
2018-05-17T04:24:34.624Z,1084.00
2018-05-17T04:25:34.611Z,992.00
2018-05-17T04:26:34.590Z,892.00
2018-05-17T04:27:34.584Z,820.00
2018-05-17T04:28:34.568Z,792.00
2018-05-17T04:29:34.555Z,732.00
2018-05-17T04:30:34.533Z,696.00
2018-05-17T04:31:34.520Z,740.00
2018-05-17T04:32:34.504Z,708.00
2018-05-17T04:33:34.501Z,748.00
2018-05-17T04:34:34.479Z,828.00
2018-05-17T04:35:34.459Z,856.00
2018-05-17T04:36:34.446Z,892.00
2018-05-17T04:37:34.452Z,1000.00
2018-05-17T04:38:34.414Z,1068.00
2018-05-17T04:39:34.398Z,1128.00
2018-05-17T04:40:34.418Z,988.00
2018-05-17T04:41:34.393Z,1048.00
2018-05-17T04:42:34.362Z,1252.00
2018-05-17T04:43:34.341Z,1132.00
2018-05-17T04:44:34.335Z,1136.00
2018-05-17T04:45:34.328Z,916.00
2018-05-17T04:46:34.294Z,676.00
2018-05-17T04:47:34.287Z,740.00
2018-05-17T04:48:34.274Z,1116.00
2018-05-17T04:49:34.249Z,1292.00
2018-05-17T04:50:34.239Z,1332.00
2018-05-17T04:51:34.227Z,1368.00
2018-05-17T04:52:34.216Z,1428.00
2018-05-17T04:53:34.192Z,1476.00
2018-05-17T04:54:34.172Z,1432.00
2018-05-17T04:55:34.165Z,1324.00
2018-05-17T04:56:34.172Z,1444.00
2018-05-17T04:57:34.134Z,1440.00
2018-05-17T04:58:34.120Z,1320.00
2018-05-17T04:59:34.108Z,1372.00
2018-05-17T05:00:34.085Z,1376.00
2018-05-17T05:01:34.082Z,1600.00
2018-05-17T05:02:34.124Z,1684.00
2018-05-17T05:03:34.037Z,2052.00
2018-05-17T05:04:34.028Z,2404.00
2018-05-17T05:05:34.009Z,2500.00
2018-05-17T05:06:34.002Z,2684.00
2018-05-17T05:07:33.981Z,3012.00
2018-05-17T05:08:33.962Z,2872.00
2018-05-17T05:09:34.869Z,2784.00
2018-05-17T05:10:33.939Z,2864.00
2018-05-17T05:11:33.916Z,3088.00
2018-05-17T05:12:33.904Z,3316.00
2018-05-17T05:13:33.888Z,3704.00
2018-05-17T05:14:33.878Z,3932.00
2018-05-17T05:15:33.861Z,4112.00
2018-05-17T05:16:33.840Z,3980.00
2018-05-17T05:17:33.831Z,3992.00
2018-05-17T05:18:33.817Z,4128.00
2018-05-17T05:19:33.804Z,4096.00
2018-05-17T05:20:33.786Z,4488.00
2018-05-17T05:21:33.777Z,4820.00
2018-05-17T05:22:33.763Z,5068.00
2018-05-17T05:23:33.735Z,4944.00
2018-05-17T05:24:33.722Z,4772.00
2018-05-17T05:25:33.706Z,4100.00
2018-05-17T05:26:33.690Z,3568.00
2018-05-17T05:27:33.678Z,4300.00
2018-05-17T05:28:33.664Z,5124.00
2018-05-17T05:29:33.649Z,5572.00
2018-05-17T05:30:33.633Z,5804.00
2018-05-17T05:31:33.688Z,5516.00
2018-05-17T05:32:33.601Z,5348.00
2018-05-17T05:33:33.593Z,5464.00
2018-05-17T05:34:33.569Z,5676.00
2018-05-17T05:35:33.558Z,6012.00
2018-05-17T05:36:33.547Z,6104.00
2018-05-17T05:37:33.558Z,5996.00
2018-05-17T05:38:33.519Z,5804.00
2018-05-17T05:39:33.504Z,5500.00
2018-05-17T05:40:33.501Z,5868.00
2018-05-17T05:41:33.468Z,6084.00
2018-05-17T05:42:33.468Z,5936.00
2018-05-17T05:43:33.437Z,6112.00
2018-05-17T05:44:33.427Z,5872.00
2018-05-17T05:45:33.416Z,5972.00
2018-05-17T05:46:33.398Z,5560.00
2018-05-17T05:47:33.380Z,5784.00
2018-05-17T05:48:33.373Z,6252.00
2018-05-17T05:49:33.387Z,6940.00
2018-05-17T05:50:33.342Z,6732.00
2018-05-17T05:51:33.328Z,6632.00
2018-05-17T05:52:33.306Z,7532.00
2018-05-17T05:53:33.296Z,8388.00
2018-05-17T05:54:33.277Z,9248.00
2018-05-17T05:55:33.261Z,9800.00
2018-05-17T05:56:33.255Z,10316.00
2018-05-17T05:57:33.233Z,10344.00
2018-05-17T05:58:33.220Z,9680.00
2018-05-17T05:59:33.210Z,9480.00
2018-05-17T06:00:33.194Z,10592.00
2018-05-17T06:01:33.187Z,11472.00
2018-05-17T06:02:33.161Z,11340.00
2018-05-17T06:03:33.148Z,10188.00
2018-05-17T06:04:33.139Z,8144.00
2018-05-17T06:05:33.129Z,6380.00
2018-05-17T06:06:33.113Z,5416.00
2018-05-17T06:07:33.095Z,5100.00
2018-05-17T06:08:33.078Z,4928.00
2018-05-17T06:09:33.072Z,5376.00
2018-05-17T06:10:33.053Z,6924.00
2018-05-17T06:11:33.034Z,7748.00
2018-05-17T06:12:33.027Z,6852.00
2018-05-17T06:13:33.012Z,5628.00
2018-05-17T06:14:32.999Z,4596.00
2018-05-17T06:15:32.987Z,3736.00
2018-05-17T06:16:32.971Z,3564.00
2018-05-17T06:17:32.965Z,3320.00
2018-05-17T06:18:32.937Z,4404.00
2018-05-17T06:19:32.930Z,6092.00
2018-05-17T06:20:32.914Z,7244.00
2018-05-17T06:21:32.894Z,7908.00
2018-05-17T06:22:32.888Z,7248.00
2018-05-17T06:23:32.866Z,5264.00
2018-05-17T06:24:32.853Z,5288.00
2018-05-17T06:25:32.837Z,6364.00
2018-05-17T06:26:32.829Z,7196.00
2018-05-17T06:27:32.808Z,7364.00
2018-05-17T06:28:32.808Z,7296.00
2018-05-17T06:29:32.782Z,7488.00
2018-05-17T06:30:32.766Z,8868.00
2018-05-17T06:31:32.756Z,9764.00
2018-05-17T06:32:32.735Z,10728.00
2018-05-17T06:33:32.728Z,11180.00
2018-05-17T06:34:32.708Z,11204.00
2018-05-17T06:35:32.699Z,10932.00
2018-05-17T06:36:32.683Z,11144.00
2018-05-17T06:37:32.753Z,10836.00
2018-05-17T06:38:32.651Z,10404.00
2018-05-17T06:39:32.635Z,9644.00
2018-05-17T06:40:32.626Z,9548.00
2018-05-17T06:41:32.613Z,10024.00
2018-05-17T06:42:32.600Z,9536.00
2018-05-17T06:43:32.586Z,9060.00
2018-05-17T06:44:32.564Z,8852.00
2018-05-17T06:45:32.558Z,8576.00
2018-05-17T06:46:32.545Z,7664.00
2018-05-17T06:47:32.529Z,7292.00
2018-05-17T06:48:32.507Z,7140.00
2018-05-17T06:49:32.502Z,8336.00
2018-05-17T06:50:32.484Z,9888.00
2018-05-17T06:51:32.465Z,12212.00
2018-05-17T06:52:32.449Z,14152.00
2018-05-17T06:53:32.436Z,12348.00
2018-05-17T06:54:32.428Z,9972.00
2018-05-17T06:55:32.408Z,8348.00
2018-05-17T06:56:32.401Z,7796.00
2018-05-17T06:57:32.381Z,7540.00
2018-05-17T06:58:32.377Z,7088.00
2018-05-17T06:59:32.352Z,8536.00
2018-05-17T07:00:32.364Z,10312.00
2018-05-17T07:01:32.324Z,11564.00
2018-05-17T07:02:32.310Z,12700.00
2018-05-17T07:03:32.298Z,11968.00
2018-05-17T07:04:32.291Z,9628.00
2018-05-17T07:05:32.272Z,7476.00
2018-05-17T07:06:32.260Z,6536.00
2018-05-17T07:07:32.252Z,7104.00
2018-05-17T07:08:32.227Z,9080.00
2018-05-17T07:09:32.218Z,11156.00
2018-05-17T07:10:32.262Z,12292.00
2018-05-17T07:11:32.185Z,11340.00
2018-05-17T07:12:32.176Z,10788.00
2018-05-17T07:13:32.159Z,10124.00
2018-05-17T07:14:32.149Z,11140.00
2018-05-17T07:15:32.135Z,10252.00
2018-05-17T07:16:32.118Z,10904.00
2018-05-17T07:17:32.111Z,10420.00
2018-05-17T07:18:32.161Z,9288.00
2018-05-17T07:19:32.076Z,8232.00
2018-05-17T07:20:32.066Z,7580.00
2018-05-17T07:21:32.050Z,6892.00
2018-05-17T07:22:32.035Z,6952.00
2018-05-17T07:23:32.028Z,7616.00
2018-05-17T07:24:32.008Z,9648.00
2018-05-17T07:25:31.996Z,10276.00
2018-05-17T07:26:31.990Z,10112.00
2018-05-17T07:27:31.973Z,10800.00
2018-05-17T07:28:31.960Z,11144.00
2018-05-17T07:29:31.948Z,11200.00
2018-05-17T07:30:31.932Z,11024.00
2018-05-17T07:31:31.926Z,10020.00
2018-05-17T07:32:31.906Z,9720.00
2018-05-17T07:33:31.894Z,10904.00
2018-05-17T07:34:31.874Z,13076.00
2018-05-17T07:35:31.865Z,13880.00
2018-05-17T07:36:31.846Z,13876.00
2018-05-17T07:37:31.833Z,10868.00
2018-05-17T07:38:31.820Z,7248.00
2018-05-17T07:39:31.813Z,5228.00
2018-05-17T07:40:31.792Z,4844.00
2018-05-17T07:41:31.785Z,4952.00
2018-05-17T07:42:31.766Z,5240.00
2018-05-17T07:43:31.760Z,5904.00
2018-05-17T07:44:31.741Z,6552.00
2018-05-17T07:45:31.731Z,7156.00
2018-05-17T07:46:31.715Z,8004.00
2018-05-17T07:47:31.698Z,9880.00
2018-05-17T07:48:31.693Z,11848.00
2018-05-17T07:49:31.684Z,13256.00
2018-05-17T07:50:31.661Z,14812.00
2018-05-17T07:51:31.651Z,14788.00
2018-05-17T07:52:31.635Z,14188.00
2018-05-17T07:53:31.622Z,14676.00
2018-05-17T07:54:31.609Z,16060.00
2018-05-17T07:55:31.613Z,16640.00
2018-05-17T07:56:31.578Z,17536.00
2018-05-17T07:57:31.565Z,18112.00
2018-05-17T07:58:31.562Z,18560.00
2018-05-17T07:59:31.543Z,18816.00
2018-05-17T08:00:31.598Z,17440.00
2018-05-17T08:01:31.530Z,16232.00
2018-05-17T08:02:31.512Z,16400.00
2018-05-17T08:03:31.500Z,16648.00
2018-05-17T08:04:31.479Z,18368.00
2018-05-17T08:05:31.470Z,21376.00
2018-05-17T08:06:31.454Z,24096.00
2018-05-17T08:07:31.450Z,29216.00
2018-05-17T08:08:31.428Z,31328.00
2018-05-17T08:09:31.440Z,30976.00
2018-05-17T08:10:31.412Z,30112.00
2018-05-17T08:11:31.393Z,26368.00
2018-05-17T08:12:31.380Z,24800.00
2018-05-17T08:13:31.378Z,23552.00
2018-05-17T08:14:31.362Z,23136.00
2018-05-17T08:15:31.355Z,24512.00
2018-05-17T08:16:31.375Z,26400.00
2018-05-17T08:17:31.327Z,28000.00
2018-05-17T08:18:31.313Z,23136.00
2018-05-17T08:19:31.313Z,21600.00
2018-05-17T08:20:31.301Z,21024.00
2018-05-17T08:21:31.281Z,19040.00
2018-05-17T08:22:31.270Z,17824.00
2018-05-17T08:23:31.259Z,19840.00
2018-05-17T08:24:31.249Z,20064.00
2018-05-17T08:25:31.241Z,21568.00
2018-05-17T08:26:31.227Z,21504.00
2018-05-17T08:27:31.221Z,20000.00
2018-05-17T08:28:31.214Z,19712.00
2018-05-17T08:29:31.196Z,22336.00
2018-05-17T08:30:31.184Z,23488.00
2018-05-17T08:31:31.181Z,25184.00
2018-05-17T08:32:31.165Z,25824.00
2018-05-17T08:33:31.159Z,26272.00
2018-05-17T08:34:31.144Z,27232.00
2018-05-17T08:35:31.133Z,27104.00
2018-05-17T08:36:31.175Z,26720.00
2018-05-17T08:37:31.114Z,26368.00
2018-05-17T08:38:31.101Z,26400.00
2018-05-17T08:39:31.098Z,27552.00
2018-05-17T08:40:31.085Z,30528.00
2018-05-17T08:41:31.069Z,31008.00
2018-05-17T08:42:31.069Z,31616.00
2018-05-17T08:43:31.050Z,30496.00
2018-05-17T08:44:31.044Z,29792.00
2018-05-17T08:45:31.036Z,31360.00
2018-05-17T08:46:31.028Z,31648.00
2018-05-17T08:47:31.030Z,33376.00
2018-05-17T08:48:31.009Z,35424.00
2018-05-17T08:49:30.999Z,31648.00
2018-05-17T08:50:30.984Z,31488.00
2018-05-17T08:51:30.981Z,31488.00
2018-05-17T08:52:30.968Z,34208.00
2018-05-17T08:53:30.955Z,32128.00
2018-05-17T08:54:30.987Z,35424.00
2018-05-17T08:55:30.946Z,35392.00
2018-05-17T08:56:30.936Z,32800.00
2018-05-17T08:57:30.923Z,37920.00
2018-05-17T08:58:30.924Z,33376.00
2018-05-17T08:59:30.904Z,40256.00
2018-05-17T09:00:30.900Z,33888.00
2018-05-17T09:01:30.888Z,27552.00
2018-05-17T09:02:30.879Z,24000.00
2018-05-17T09:03:30.875Z,23136.00
2018-05-17T09:04:30.859Z,22912.00
2018-05-17T09:05:30.853Z,22368.00
2018-05-17T09:06:30.847Z,21696.00
2018-05-17T09:07:30.839Z,21952.00
2018-05-17T09:08:30.827Z,21728.00
2018-05-17T09:09:30.817Z,21056.00
2018-05-17T09:10:30.811Z,22816.00
2018-05-17T09:11:30.803Z,24544.00
2018-05-17T09:12:30.791Z,29408.00
2018-05-17T09:13:30.841Z,54112.00
2018-05-17T09:14:30.770Z,62336.00
2018-05-17T09:15:30.766Z,31072.00
2018-05-17T09:16:30.756Z,38464.00
2018-05-17T09:17:30.740Z,39776.00
2018-05-17T09:18:30.738Z,43552.00
2018-05-17T09:19:30.796Z,40864.00
2018-05-17T09:20:30.823Z,58944.00
2018-05-17T09:21:30.705Z,59168.00
2018-05-17T09:22:30.695Z,55552.00
2018-05-17T09:23:30.692Z,61504.00
2018-05-17T09:24:30.681Z,68608.00
2018-05-17T09:25:30.669Z,66432.00
2018-05-17T09:26:30.667Z,46272.00
2018-05-17T09:27:30.651Z,40960.00
2018-05-17T09:28:30.646Z,65664.00
2018-05-17T09:29:30.648Z,59392.00
2018-05-17T09:30:30.628Z,54816.00
2018-05-17T09:31:30.622Z,40352.00
2018-05-17T09:32:30.615Z,69600.00
2018-05-17T09:33:30.606Z,52896.00
2018-05-17T09:34:30.594Z,44896.00
2018-05-17T09:35:30.599Z,48608.00
2018-05-17T09:36:30.579Z,54976.00
2018-05-17T09:37:30.573Z,45504.00
2018-05-17T09:38:30.562Z,45248.00
2018-05-17T09:39:30.560Z,49600.00
2018-05-17T09:40:30.547Z,38656.00
2018-05-17T09:41:30.639Z,36864.00
2018-05-17T09:42:30.534Z,37280.00
2018-05-17T09:43:30.528Z,35712.00
2018-05-17T09:44:30.518Z,39808.00
2018-05-17T09:45:30.511Z,41312.00
2018-05-17T09:46:30.508Z,51200.00
2018-05-17T09:47:30.582Z,47168.00
2018-05-17T09:48:30.494Z,52192.00
2018-05-17T09:49:30.485Z,54048.00
2018-05-17T09:50:30.473Z,37024.00
2018-05-17T09:51:30.470Z,32864.00
2018-05-17T09:52:30.461Z,31200.00
2018-05-17T09:53:30.456Z,28352.00
2018-05-17T09:54:30.448Z,26624.00
2018-05-17T09:55:30.438Z,24576.00
2018-05-17T09:56:30.432Z,25440.00
2018-05-17T09:57:30.418Z,25792.00
2018-05-17T09:58:30.416Z,26848.00
2018-05-17T09:59:30.403Z,28096.00
2018-05-17T10:00:30.397Z,30272.00
2018-05-17T10:01:30.386Z,29184.00
2018-05-17T10:02:30.380Z,27328.00
2018-05-17T10:03:30.373Z,26752.00
2018-05-17T10:04:30.363Z,26112.00
2018-05-17T10:05:30.357Z,30720.00
2018-05-17T10:06:30.348Z,27296.00
2018-05-17T10:07:30.345Z,27200.00
2018-05-17T10:08:30.331Z,38400.00
2018-05-17T10:09:30.329Z,34944.00
2018-05-17T10:10:30.309Z,45024.00
2018-05-17T10:11:30.309Z,50624.00
2018-05-17T10:12:30.313Z,51360.00
2018-05-17T10:13:30.292Z,43296.00
2018-05-17T10:14:30.318Z,51680.00
2018-05-17T10:15:30.344Z,69152.00
2018-05-17T10:16:30.264Z,81376.00
2018-05-17T10:17:30.265Z,70336.00
2018-05-17T10:18:30.249Z,62880.00
2018-05-17T10:19:30.242Z,61344.00
2018-05-17T10:20:30.242Z,61216.00
2018-05-17T10:21:30.233Z,58080.00
2018-05-17T10:22:30.226Z,54336.00
2018-05-17T10:23:30.216Z,59232.00
2018-05-17T10:24:30.255Z,67776.00
2018-05-17T10:25:30.201Z,70240.00
2018-05-17T10:26:30.194Z,78304.00
2018-05-17T10:27:30.198Z,76288.00
2018-05-17T10:28:30.188Z,80128.00
2018-05-17T10:29:30.186Z,77952.00
2018-05-17T10:30:30.179Z,67872.00
2018-05-17T10:31:30.168Z,66208.00
2018-05-17T10:32:30.162Z,61472.00
2018-05-17T10:33:30.150Z,60512.00
2018-05-17T10:34:30.153Z,58528.00
2018-05-17T10:35:30.140Z,59424.00
2018-05-17T10:36:30.140Z,54848.00
2018-05-17T10:37:30.133Z,51744.00
2018-05-17T10:38:30.127Z,50880.00
2018-05-17T10:39:30.126Z,45472.00
2018-05-17T10:40:30.114Z,44992.00
2018-05-17T10:41:30.114Z,48544.00
2018-05-17T10:42:30.104Z,48640.00
2018-05-17T10:43:30.100Z,49216.00
2018-05-17T10:44:30.107Z,49248.00
2018-05-17T10:45:30.092Z,36320.00
2018-05-17T10:46:30.088Z,34912.00
2018-05-17T10:47:30.079Z,35712.00
2018-05-17T10:48:30.088Z,50208.00
2018-05-17T10:49:30.076Z,37536.00
2018-05-17T10:50:30.066Z,30976.00
2018-05-17T10:51:30.060Z,33760.00
2018-05-17T10:52:30.058Z,39680.00
2018-05-17T10:53:30.056Z,40896.00
2018-05-17T10:54:30.049Z,40192.00
2018-05-17T10:55:30.040Z,57664.00
2018-05-17T10:56:30.032Z,59392.00
2018-05-17T10:57:30.031Z,62272.00
2018-05-17T10:58:30.023Z,59776.00
2018-05-17T10:59:30.015Z,62432.00
2018-05-17T11:00:30.014Z,55520.00
2018-05-17T11:01:30.010Z,51264.00
2018-05-17T11:02:30.004Z,40352.00
2018-05-17T11:03:29.995Z,33216.00
2018-05-17T11:04:29.995Z,39040.00
2018-05-17T11:05:29.983Z,35520.00
2018-05-17T11:06:29.985Z,40576.00
2018-05-17T11:07:29.976Z,44320.00
2018-05-17T11:08:29.973Z,40896.00
2018-05-17T11:09:29.963Z,37312.00
2018-05-17T11:10:29.957Z,44096.00
2018-05-17T11:11:29.954Z,45088.00
2018-05-17T11:12:29.947Z,42688.00
2018-05-17T11:13:29.941Z,45696.00
2018-05-17T11:14:29.939Z,52320.00
2018-05-17T11:15:29.931Z,45376.00
2018-05-17T11:16:29.924Z,51840.00
2018-05-17T11:17:29.925Z,53920.00
2018-05-17T11:18:29.922Z,55104.00
2018-05-17T11:19:29.915Z,53280.00
2018-05-17T11:20:29.906Z,45440.00
2018-05-17T11:21:29.900Z,46016.00
2018-05-17T11:22:29.896Z,52992.00
2018-05-17T11:23:29.889Z,55904.00
2018-05-17T11:24:29.893Z,56064.00
2018-05-17T11:25:29.880Z,55392.00
2018-05-17T11:26:29.880Z,58912.00
2018-05-17T11:27:29.877Z,59552.00
2018-05-17T11:28:29.869Z,55200.00
2018-05-17T11:29:29.867Z,57824.00
2018-05-17T11:30:29.854Z,57856.00
2018-05-17T11:31:29.851Z,57088.00
2018-05-17T11:32:29.846Z,55872.00
2018-05-17T11:33:29.844Z,55104.00
2018-05-17T11:34:29.841Z,54816.00
2018-05-17T11:35:29.842Z,53888.00
2018-05-17T11:36:29.834Z,55072.00
2018-05-17T11:37:29.826Z,56832.00
2018-05-17T11:38:29.840Z,61056.00
2018-05-17T11:39:29.822Z,61312.00
2018-05-17T11:40:29.816Z,61600.00
2018-05-17T11:41:29.810Z,61216.00
2018-05-17T11:42:29.807Z,59040.00
2018-05-17T11:43:29.803Z,55456.00
2018-05-17T11:44:29.805Z,55808.00
2018-05-17T11:45:29.796Z,55584.00
2018-05-17T11:46:29.794Z,57952.00
2018-05-17T11:47:29.789Z,51392.00
2018-05-17T11:48:29.798Z,55648.00
2018-05-17T11:49:29.780Z,48512.00
2018-05-17T11:50:29.790Z,45408.00
2018-05-17T11:51:29.774Z,45600.00
2018-05-17T11:52:29.766Z,46784.00
2018-05-17T11:53:29.766Z,43328.00
2018-05-17T11:54:29.764Z,45536.00
2018-05-17T11:55:29.767Z,48192.00
2018-05-17T11:56:29.759Z,50144.00
2018-05-17T11:57:29.751Z,48448.00
2018-05-17T11:58:29.747Z,45792.00
2018-05-17T11:59:29.744Z,48800.00
2018-05-17T12:00:29.741Z,51424.00
2018-05-17T12:01:29.824Z,49216.00
2018-05-17T12:02:29.737Z,53024.00
2018-05-17T12:03:29.734Z,57344.00
2018-05-17T12:04:29.724Z,55744.00
2018-05-17T12:05:29.725Z,56992.00
2018-05-17T12:06:29.722Z,53504.00
2018-05-17T12:07:29.734Z,47392.00
2018-05-17T12:08:29.715Z,42496.00
2018-05-17T12:09:29.716Z,41344.00
2018-05-17T12:10:29.712Z,42112.00
2018-05-17T12:11:29.702Z,39872.00
2018-05-17T12:12:29.700Z,38560.00
2018-05-17T12:13:29.702Z,36928.00
2018-05-17T12:14:29.693Z,35232.00
2018-05-17T12:15:29.689Z,34560.00
2018-05-17T12:16:29.690Z,33696.00
2018-05-17T12:17:29.686Z,32992.00